Time;durP1;ratioP1;P1;durP2;ratioP2;P2;SDS_P1;SDS_P2;PMS_P1;PMS_P2;Temp;Humidity;BMP_temperature;BMP_pressure;BME280_temperature;BME280_humidity;BME280_pressure;Samples;Min_cycle;Max_cycle;Signal;HPM_P1;HPM_P2
2020/12/02 00:01:38;;;;;;;27.73;20.53;;;4.00;99.90;;;;;;5012121;28;20447;-89
2020/12/02 00:04:09;;;;;;;30.00;20.77;;;4.10;99.90;;;;;;5011822;28;20455;-89
2020/12/02 00:06:36;;;;;;;30.50;20.93;;;4.00;99.90;;;;;;5012261;28;20494;-89
2020/12/02 00:09:08;;;;;;;30.30;21.90;;;4.00;99.90;;;;;;5012145;28;20521;-89
2020/12/02 00:11:35;;;;;;;31.70;21.83;;;4.00;99.90;;;;;;5012508;28;21077;-88
2020/12/02 00:14:06;;;;;;;23.77;18.20;;;4.00;99.90;;;;;;5012115;28;20874;-89
2020/12/02 00:16:33;;;;;;;27.23;19.07;;;4.00;99.90;;;;;;5012120;28;20544;-89
2020/12/02 00:19:01;;;;;;;28.40;19.77;;;4.00;99.90;;;;;;5012042;28;20479;-89
2020/12/02 00:21:31;;;;;;;28.77;18.13;;;4.00;99.90;;;;;;5012113;28;20446;-89
2020/12/02 00:24:04;;;;;;;25.10;17.53;;;4.00;99.90;;;;;;5011950;28;20455;-89
2020/12/02 00:26:30;;;;;;;24.88;18.15;;;3.90;99.90;;;;;;5012108;28;20452;-88
2020/12/02 00:28:58;;;;;;;27.33;18.35;;;4.00;99.90;;;;;;5011243;28;20221;-89
2020/12/02 00:31:25;;;;;;;28.00;18.77;;;4.00;99.90;;;;;;5012568;28;20204;-89
2020/12/02 00:33:51;;;;;;;30.08;19.38;;;4.00;99.90;;;;;;5012256;28;20461;-89
2020/12/02 00:36:17;;;;;;;26.33;19.10;;;3.90;99.90;;;;;;5012159;28;20234;-88
2020/12/02 00:38:44;;;;;;;24.80;18.00;;;3.90;99.90;;;;;;5012561;28;20214;-89
2020/12/02 00:41:11;;;;;;;24.50;17.92;;;3.90;99.90;;;;;;5012830;28;20453;-90
2020/12/02 00:43:37;;;;;;;28.63;18.23;;;3.90;99.90;;;;;;5012367;28;20198;-89
2020/12/02 00:46:05;;;;;;;26.65;15.77;;;3.90;99.90;;;;;;5012089;28;20204;-90
2020/12/02 00:48:33;;;;;;;24.58;17.20;;;3.90;99.90;;;;;;5011945;28;20217;-89
2020/12/02 00:51:00;;;;;;;24.63;17.17;;;3.90;99.90;;;;;;5012343;28;20208;-89
2020/12/02 00:53:29;;;;;;;25.73;19.30;;;3.80;99.90;;;;;;5012309;28;20218;-89
2020/12/02 00:55:56;;;;;;;22.80;18.07;;;3.80;99.90;;;;;;5012867;28;20498;-89
2020/12/02 00:58:37;;;;;;;29.45;19.40;;;3.80;99.90;;;;;;5013839;28;20466;-88
2020/12/02 01:01:07;;;;;;;27.25;19.10;;;3.80;99.90;;;;;;5027270;28;20202;-89
2020/12/02 01:03:34;;;;;;;26.13;19.57;;;3.80;99.90;;;;;;5023273;28;20224;-89
2020/12/02 01:06:03;;;;;;;29.07;20.23;;;3.80;99.90;;;;;;5012382;28;20946;-88
2020/12/02 01:08:34;;;;;;;24.30;17.57;;;3.90;99.90;;;;;;5012664;28;20816;-88
2020/12/02 01:11:07;;;;;;;29.20;19.67;;;3.80;99.90;;;;;;5012600;28;20520;-90
2020/12/02 01:13:34;;;;;;;24.85;17.45;;;3.90;99.90;;;;;;5012260;28;20443;-89
2020/12/02 01:16:04;;;;;;;26.40;17.40;;;3.90;99.90;;;;;;5012017;28;20625;-89
2020/12/02 01:18:31;;;;;;;26.20;17.57;;;3.90;99.90;;;;;;5011848;28;20996;-89
2020/12/02 01:21:08;;;;;;;28.00;19.40;;;3.80;99.90;;;;;;4992530;28;20979;-90
2020/12/02 01:23:35;;;;;;;25.00;18.97;;;3.80;99.90;;;;;;4993110;28;20929;-89
2020/12/02 01:26:03;;;;;;;26.93;19.53;;;3.90;99.90;;;;;;5013828;28;20434;-90
2020/12/02 01:28:32;;;;;;;29.00;18.27;;;3.90;99.90;;;;;;5018148;28;20442;-90
2020/12/02 01:31:00;;;;;;;25.13;18.23;;;3.90;99.90;;;;;;5013421;28;20429;-91
2020/12/02 01:33:27;;;;;;;24.97;17.30;;;3.90;99.90;;;;;;5014448;28;20189;-89
2020/12/02 01:35:54;;;;;;;23.00;16.93;;;3.90;99.90;;;;;;5013096;28;20505;-88
2020/12/02 01:38:32;;;;;;;23.60;17.53;;;3.90;99.90;;;;;;5012574;28;20465;-90
2020/12/02 01:40:58;;;;;;;25.93;18.37;;;3.90;99.90;;;;;;5013664;28;20958;-89
2020/12/02 01:43:25;;;;;;;25.38;17.20;;;3.90;99.90;;;;;;5015941;28;20459;-88
2020/12/02 01:45:55;;;;;;;25.60;17.30;;;3.90;99.90;;;;;;5015490;28;20206;-89
2020/12/02 01:48:41;;;;;;;24.27;16.63;;;3.90;99.90;;;;;;5015155;28;20476;-89
2020/12/02 01:51:12;;;;;;;25.33;17.95;;;3.90;99.90;;;;;;5015499;28;20233;-89
2020/12/02 01:53:49;;;;;;;22.10;16.75;;;3.90;99.90;;;;;;5015511;28;20279;-88
2020/12/02 01:56:22;;;;;;;25.87;17.10;;;3.80;99.90;;;;;;5014983;28;20708;-89
2020/12/02 01:59:03;;;;;;;23.65;17.10;;;3.80;99.90;;;;;;5015133;28;20484;-89
2020/12/02 02:01:43;;;;;;;21.55;16.67;;;3.80;99.90;;;;;;5015269;28;20314;-89
2020/12/02 02:04:14;;;;;;;24.90;16.23;;;3.80;99.90;;;;;;5015002;28;20576;-89
2020/12/02 02:07:01;;;;;;;25.10;17.47;;;3.90;99.90;;;;;;5014984;28;20536;-89
2020/12/02 02:09:29;;;;;;;21.00;16.73;;;3.90;99.90;;;;;;5015094;28;20480;-89
2020/12/02 02:12:12;;;;;;;22.70;16.37;;;3.90;99.90;;;;;;5015236;28;20214;-88
2020/12/02 02:14:43;;;;;;;23.90;17.33;;;3.90;99.90;;;;;;5014557;28;20463;-90
2020/12/02 02:17:09;;;;;;;25.40;18.00;;;3.90;99.90;;;;;;5014538;28;20487;-89
2020/12/02 02:19:36;;;;;;;22.40;16.17;;;3.90;99.90;;;;;;5014565;28;20574;-89
2020/12/02 02:22:02;;;;;;;21.87;16.10;;;3.90;99.90;;;;;;5014732;28;20211;-89
2020/12/02 02:24:29;;;;;;;24.37;16.87;;;3.90;99.90;;;;;;5026421;28;20461;-89
2020/12/02 02:26:57;;;;;;;25.07;18.90;;;3.90;99.90;;;;;;5031013;28;20438;-89
2020/12/02 02:29:26;;;;;;;24.40;18.50;;;3.90;99.90;;;;;;5015123;28;20501;-89
2020/12/02 02:31:59;;;;;;;24.20;16.63;;;4.00;99.90;;;;;;5015013;28;20449;-90
2020/12/02 02:34:26;;;;;;;23.98;16.88;;;4.00;99.90;;;;;;5014492;28;20203;-89
2020/12/02 02:36:54;;;;;;;22.90;15.87;;;4.00;99.90;;;;;;5014235;28;20639;-90
2020/12/02 02:39:21;;;;;;;22.40;16.50;;;4.00;99.90;;;;;;5014014;28;20468;-89
2020/12/02 02:41:48;;;;;;;21.43;16.20;;;4.00;99.90;;;;;;5014752;28;20874;-90
2020/12/02 02:44:15;;;;;;;23.10;16.80;;;4.00;99.90;;;;;;5014079;28;20456;-89
2020/12/02 02:46:42;;;;;;;22.40;15.97;;;4.00;99.90;;;;;;5014147;28;20902;-90
2020/12/02 02:49:10;;;;;;;25.40;16.90;;;4.00;99.90;;;;;;5013617;28;20468;-89
2020/12/02 02:51:36;;;;;;;23.02;16.33;;;4.00;99.90;;;;;;5013909;28;21031;-89
2020/12/02 02:54:02;;;;;;;22.70;16.20;;;3.90;99.90;;;;;;5015136;28;20246;-88
2020/12/02 02:56:28;;;;;;;21.43;17.17;;;3.90;99.90;;;;;;5014127;28;20492;-90
2020/12/02 02:58:55;;;;;;;21.20;16.30;;;3.90;99.90;;;;;;5013591;28;20473;-89
2020/12/02 03:01:22;;;;;;;23.40;16.27;;;3.90;99.90;;;;;;5013987;28;20457;-89
2020/12/02 03:03:48;;;;;;;26.07;16.20;;;3.90;99.90;;;;;;5013982;28;20464;-89
2020/12/02 03:06:14;;;;;;;25.57;18.60;;;3.90;99.90;;;;;;5013412;28;20449;-90
2020/12/02 03:08:40;;;;;;;24.47;18.07;;;3.90;99.90;;;;;;5013769;28;20462;-89
2020/12/02 03:11:09;;;;;;;21.70;16.63;;;3.90;99.90;;;;;;5013985;28;20795;-90
2020/12/02 03:13:39;;;;;;;22.50;16.90;;;3.90;99.90;;;;;;5013900;28;20981;-90
2020/12/02 03:16:11;;;;;;;23.87;18.13;;;3.90;99.90;;;;;;5013286;28;20880;-89
2020/12/02 03:18:40;;;;;;;20.20;15.43;;;3.90;99.90;;;;;;5013745;28;20461;-90
2020/12/02 03:21:13;;;;;;;24.13;16.37;;;3.90;99.90;;;;;;4994470;28;20831;-88
2020/12/02 03:23:39;;;;;;;23.73;17.30;;;3.80;99.90;;;;;;4995931;28;20454;-91
2020/12/02 03:26:05;;;;;;;25.40;17.80;;;3.90;99.90;;;;;;5012585;28;20520;-88
2020/12/02 03:28:31;;;;;;;24.93;15.87;;;3.90;99.90;;;;;;5013564;28;20998;-88
2020/12/02 03:31:01;;;;;;;20.33;16.95;;;3.90;99.90;;;;;;5013457;28;20456;-88
2020/12/02 03:33:28;;;;;;;19.97;15.97;;;3.90;99.90;;;;;;5013491;28;20204;-88
2020/12/02 03:35:56;;;;;;;21.40;15.50;;;3.90;99.90;;;;;;5013506;28;20478;-87
2020/12/02 03:38:23;;;;;;;22.37;16.07;;;3.90;99.90;;;;;;5029804;28;20468;-88
2020/12/02 03:40:49;;;;;;;21.70;15.50;;;3.90;99.90;;;;;;5013764;28;20445;-90
2020/12/02 03:43:15;;;;;;;21.50;17.60;;;3.90;99.90;;;;;;5021591;28;20444;-91
2020/12/02 03:45:44;;;;;;;22.17;17.00;;;3.90;99.90;;;;;;5018416;28;20453;-90
2020/12/02 03:48:14;;;;;;;24.00;15.90;;;3.90;99.90;;;;;;5016828;28;20473;-90
2020/12/02 03:50:41;;;;;;;23.83;18.73;;;4.00;99.90;;;;;;5038050;28;20439;-91
2020/12/02 03:53:08;;;;;;;24.73;17.60;;;3.90;99.90;;;;;;5038550;28;20432;-90
2020/12/02 03:55:36;;;;;;;24.47;18.03;;;4.00;99.90;;;;;;5034570;28;20469;-88
2020/12/02 03:58:03;;;;;;;24.60;17.40;;;4.00;99.90;;;;;;5027017;28;20482;-89
2020/12/02 04:00:29;;;;;;;26.70;17.60;;;4.00;99.90;;;;;;5015948;28;20790;-89
2020/12/02 04:02:55;;;;;;;21.17;16.70;;;4.00;99.90;;;;;;5014323;28;20945;-88
2020/12/02 04:05:22;;;;;;;21.67;15.67;;;4.00;99.90;;;;;;5012521;28;20506;-88
2020/12/02 04:07:48;;;;;;;25.00;16.40;;;4.00;99.90;;;;;;5012942;28;20498;-89
2020/12/02 04:10:15;;;;;;;21.60;16.13;;;4.00;99.90;;;;;;5012981;28;20810;-89
2020/12/02 04:12:42;;;;;;;22.97;16.90;;;4.00;99.90;;;;;;5012802;28;20947;-89
2020/12/02 04:15:09;;;;;;;21.90;16.40;;;4.00;99.90;;;;;;5012775;28;20449;-89
2020/12/02 04:17:35;;;;;;;21.50;16.67;;;4.00;99.90;;;;;;5012635;28;20532;-89
2020/12/02 04:20:02;;;;;;;24.50;17.27;;;4.00;99.90;;;;;;5012419;28;20871;-89
2020/12/02 04:22:28;;;;;;;22.03;15.87;;;4.00;99.90;;;;;;5012666;28;20817;-90
2020/12/02 04:24:55;;;;;;;24.43;16.53;;;4.00;99.90;;;;;;5012169;28;20900;-90
2020/12/02 04:27:22;;;;;;;19.83;15.13;;;4.00;99.90;;;;;;5012769;28;20445;-90
2020/12/02 04:29:48;;;;;;;21.63;16.77;;;4.00;99.90;;;;;;5012017;28;20484;-90
2020/12/02 04:32:14;;;;;;;26.00;17.27;;;4.00;99.90;;;;;;5012773;28;20852;-90
2020/12/02 04:34:41;;;;;;;21.80;17.37;;;4.00;99.90;;;;;;5012578;28;20454;-90
2020/12/02 04:37:07;;;;;;;21.70;15.23;;;4.00;99.90;;;;;;5012646;28;20848;-89
2020/12/02 04:39:33;;;;;;;22.77;18.47;;;4.00;99.90;;;;;;5012828;28;20472;-90
2020/12/02 04:41:59;;;;;;;26.23;17.37;;;4.10;99.90;;;;;;5013244;28;20472;-89
2020/12/02 04:44:26;;;;;;;23.10;16.93;;;4.10;99.90;;;;;;5012021;28;20460;-90
2020/12/02 04:46:55;;;;;;;22.63;15.82;;;4.10;99.90;;;;;;5012660;28;20446;-90
2020/12/02 04:49:24;;;;;;;20.83;16.50;;;4.10;99.90;;;;;;5021722;28;20233;-90
2020/12/02 04:51:54;;;;;;;21.43;16.07;;;4.10;99.90;;;;;;5021046;28;20444;-89
2020/12/02 04:54:20;;;;;;;20.83;16.07;;;4.00;99.90;;;;;;5012663;28;20457;-90
2020/12/02 04:56:48;;;;;;;25.10;17.43;;;4.10;99.90;;;;;;5012087;28;20492;-89
2020/12/02 04:59:14;;;;;;;22.30;15.90;;;4.10;99.90;;;;;;5012330;28;20487;-89
2020/12/02 05:01:51;;;;;;;20.80;15.90;;;4.10;99.90;;;;;;5012382;28;20446;-90
2020/12/02 05:04:19;;;;;;;19.67;15.10;;;4.10;99.90;;;;;;5024547;28;20437;-90
2020/12/02 05:06:47;;;;;;;20.30;16.10;;;4.10;99.90;;;;;;5012778;28;20446;-90
2020/12/02 05:09:17;;;;;;;20.60;16.70;;;4.10;99.90;;;;;;5012281;28;20476;-89
2020/12/02 05:11:54;;;;;;;18.67;14.20;;;4.10;99.90;;;;;;5012562;28;20537;-89
2020/12/02 05:14:20;;;;;;;19.47;14.63;;;4.00;99.90;;;;;;5012242;28;20471;-90
2020/12/02 05:17:10;;;;;;;20.30;15.80;;;4.00;99.90;;;;;;5015627;28;20509;-89
2020/12/02 05:19:36;;;;;;;17.03;13.83;;;4.00;99.90;;;;;;5015527;28;20550;-90
2020/12/02 05:22:11;;;;;;;19.43;15.90;;;4.00;99.90;;;;;;5015835;28;20458;-89
2020/12/02 05:24:46;;;;;;;19.50;15.17;;;4.00;99.90;;;;;;5015379;28;20479;-89
2020/12/02 05:27:16;;;;;;;20.80;15.03;;;4.00;99.90;;;;;;5016524;28;20448;-89
2020/12/02 05:29:53;;;;;;;18.10;13.30;;;4.10;99.90;;;;;;5017619;28;20477;-89
2020/12/02 05:32:22;;;;;;;20.33;14.57;;;4.10;99.90;;;;;;5016399;28;20436;-90
2020/12/02 05:34:48;;;;;;;18.43;14.37;;;4.00;99.90;;;;;;5015847;28;20462;-90
2020/12/02 05:37:24;;;;;;;19.50;15.00;;;4.00;99.90;;;;;;5015520;28;20476;-89
2020/12/02 05:39:54;;;;;;;19.33;15.07;;;4.10;99.90;;;;;;5015495;28;20600;-89
2020/12/02 05:42:33;;;;;;;17.23;13.30;;;4.00;99.90;;;;;;5015714;28;20444;-89
2020/12/02 05:45:04;;;;;;;15.73;13.47;;;4.10;99.90;;;;;;5015465;28;20533;-89
2020/12/02 05:47:31;;;;;;;19.00;14.73;;;4.10;99.90;;;;;;5015427;28;20445;-90
2020/12/02 05:50:00;;;;;;;19.17;14.67;;;4.10;99.90;;;;;;5015571;28;20872;-90
2020/12/02 05:52:32;;;;;;;17.60;14.07;;;4.10;99.90;;;;;;5015589;28;20454;-90
2020/12/02 05:55:05;;;;;;;19.43;14.90;;;4.00;99.90;;;;;;5014966;28;20951;-90
2020/12/02 05:57:33;;;;;;;18.23;13.90;;;4.10;99.90;;;;;;5015289;28;21004;-89
2020/12/02 06:00:00;;;;;;;17.03;13.97;;;4.10;99.90;;;;;;5015428;28;20452;-88
2020/12/02 06:02:27;;;;;;;20.30;15.40;;;4.10;99.90;;;;;;5032343;28;20512;-89
2020/12/02 06:04:55;;;;;;;20.33;14.40;;;4.10;99.90;;;;;;5016778;28;20461;-89
2020/12/02 06:07:22;;;;;;;18.80;15.00;;;4.10;99.90;;;;;;5015195;28;20446;-88
2020/12/02 06:09:51;;;;;;;19.00;14.10;;;4.10;99.90;;;;;;5015182;28;20477;-89
2020/12/02 06:12:20;;;;;;;18.20;13.10;;;4.10;99.90;;;;;;5015553;28;20453;-88
2020/12/02 06:14:47;;;;;;;18.57;14.00;;;4.20;99.90;;;;;;5033446;28;20463;-90
2020/12/02 06:17:27;;;;;;;15.77;13.20;;;4.10;99.90;;;;;;5039892;28;20465;-88
2020/12/02 06:19:54;;;;;;;19.27;14.30;;;4.20;99.90;;;;;;5028219;28;20485;-88
2020/12/02 06:22:49;;;;;;;23.20;16.00;;;4.20;99.90;;;;;;5029352;28;20512;-88
2020/12/02 06:26:00;;;;;;;19.53;14.03;;;4.20;99.90;;;;;;5025677;28;20861;-89
2020/12/02 06:28:46;;;;;;;20.20;14.60;;;4.20;99.90;;;;;;4955206;29;20463;-89
2020/12/02 06:31:22;;;;;;;19.77;15.53;;;4.00;99.90;;;;;;5009211;28;20465;-89
2020/12/02 06:33:49;;;;;;;21.47;15.63;;;3.90;99.90;;;;;;5014605;28;20532;-89
2020/12/02 06:36:23;;;;;;;18.93;14.87;;;3.80;99.90;;;;;;5014517;28;20776;-90
2020/12/02 06:38:52;;;;;;;17.87;14.00;;;3.90;99.90;;;;;;5014786;28;20545;-90
2020/12/02 06:41:28;;;;;;;19.30;12.87;;;3.90;99.90;;;;;;5015422;28;20453;-90
2020/12/02 06:44:01;;;;;;;22.03;15.93;;;3.90;99.90;;;;;;5014212;28;20453;-89
2020/12/02 06:47:06;;;;;;;22.10;16.37;;;4.00;99.90;;;;;;5014152;28;20540;-88
2020/12/02 06:49:34;;;;;;;18.93;13.43;;;4.00;99.90;;;;;;5013379;28;20900;-88
2020/12/02 06:52:04;;;;;;;21.93;16.13;;;4.10;99.90;;;;;;5014751;28;20448;-89
2020/12/02 06:54:36;;;;;;;19.10;15.93;;;4.10;99.90;;;;;;5014701;28;20448;-88
2020/12/02 06:57:07;;;;;;;24.90;15.27;;;4.10;99.90;;;;;;5014793;28;20500;-89
2020/12/02 06:59:54;;;;;;;19.73;15.00;;;4.20;99.90;;;;;;5014038;28;20473;-89
2020/12/02 07:02:32;;;;;;;23.03;13.83;;;4.10;99.90;;;;;;5014067;28;20524;-90
2020/12/02 07:05:02;;;;;;;21.97;15.43;;;4.00;99.90;;;;;;5013866;28;20507;-89
2020/12/02 07:07:29;;;;;;;18.33;14.40;;;3.90;99.90;;;;;;5014340;28;20472;-89
2020/12/02 07:09:55;;;;;;;20.60;14.80;;;4.00;99.90;;;;;;5013749;28;20900;-89
2020/12/02 07:12:23;;;;;;;20.17;15.00;;;4.10;99.90;;;;;;5016127;28;20840;-89
2020/12/02 07:14:50;;;;;;;20.40;15.30;;;4.00;99.90;;;;;;5028005;28;20470;-89
2020/12/02 07:17:21;;;;;;;21.30;14.73;;;4.10;99.90;;;;;;5014265;28;20884;-89
2020/12/02 07:19:48;;;;;;;21.43;15.07;;;4.10;99.90;;;;;;5013513;28;20527;-88
2020/12/02 07:22:18;;;;;;;21.13;14.70;;;4.10;99.90;;;;;;5013874;28;20446;-89
2020/12/02 07:24:48;;;;;;;25.13;16.20;;;4.10;99.90;;;;;;5013880;28;20436;-88
2020/12/02 07:27:17;;;;;;;20.70;15.20;;;4.10;99.90;;;;;;5013794;28;21146;-88
2020/12/02 07:29:43;;;;;;;19.20;14.63;;;4.10;99.90;;;;;;5013683;28;20469;-89
2020/12/02 07:32:14;;;;;;;21.27;16.43;;;4.10;99.90;;;;;;5013978;28;20435;-88
2020/12/02 07:34:41;;;;;;;23.87;15.40;;;4.20;99.90;;;;;;5024463;28;20464;-87
2020/12/02 07:37:11;;;;;;;22.43;15.37;;;4.20;99.90;;;;;;5016304;28;21009;-87
2020/12/02 07:39:46;;;;;;;19.80;13.80;;;4.20;99.90;;;;;;5013450;28;20470;-88
2020/12/02 07:42:18;;;;;;;23.37;15.60;;;4.20;99.90;;;;;;5013931;28;20425;-88
2020/12/02 07:44:48;;;;;;;20.30;15.47;;;4.10;99.90;;;;;;5026819;28;20460;-89
2020/12/02 07:47:16;;;;;;;20.70;15.53;;;4.20;99.90;;;;;;5013849;28;20448;-89
2020/12/02 07:49:52;;;;;;;22.10;16.00;;;4.20;99.90;;;;;;5013494;28;20534;-89
2020/12/02 07:52:23;;;;;;;19.87;15.40;;;4.20;99.90;;;;;;5013806;28;20450;-89
2020/12/02 07:54:54;;;;;;;20.83;16.20;;;4.30;99.90;;;;;;5024773;28;20458;-89
2020/12/02 07:57:24;;;;;;;26.97;16.37;;;4.00;99.90;;;;;;5013147;28;20491;-89
2020/12/02 08:00:12;;;;;;;25.80;16.10;;;4.00;99.90;;;;;;5013836;28;20904;-89
2020/12/02 08:02:40;;;;;;;26.10;17.00;;;4.00;99.90;;;;;;5013252;28;20934;-89
2020/12/02 08:05:28;;;;;;;26.13;20.00;;;3.90;99.90;;;;;;5013063;28;20833;-89
2020/12/02 08:08:00;;;;;;;31.60;20.07;;;3.90;99.90;;;;;;5012948;28;20467;-90
2020/12/02 08:10:31;;;;;;;27.60;19.70;;;3.90;99.90;;;;;;5013235;28;20857;-89
2020/12/02 08:12:59;;;;;;;26.33;19.20;;;3.90;99.90;;;;;;5013242;28;20503;-90
2020/12/02 08:15:25;;;;;;;28.33;20.30;;;3.90;99.90;;;;;;5012925;28;20446;-90
2020/12/02 08:18:11;;;;;;;27.20;18.47;;;3.90;99.90;;;;;;5013032;28;20491;-90
2020/12/02 08:20:38;;;;;;;25.70;18.60;;;3.90;99.90;;;;;;5011314;28;20608;-90
2020/12/02 08:23:08;;;;;;;23.00;17.07;;;3.90;99.90;;;;;;5011406;28;20935;-91
2020/12/02 08:25:39;;;;;;;24.10;15.83;;;4.00;99.90;;;;;;5012736;28;20519;-90
2020/12/02 08:28:11;;;;;;;25.97;16.90;;;4.10;99.90;;;;;;5012938;28;20885;-90
2020/12/02 08:30:38;;;;;;;25.93;17.07;;;4.10;99.90;;;;;;5012973;28;20455;-88
2020/12/02 08:33:09;;;;;;;21.73;15.17;;;4.10;99.90;;;;;;5012807;28;20474;-89
2020/12/02 08:35:40;;;;;;;26.73;16.13;;;4.20;99.90;;;;;;5020374;28;20457;-88
2020/12/02 08:38:14;;;;;;;26.17;18.07;;;4.30;99.90;;;;;;5026028;28;20500;-88
2020/12/02 08:40:46;;;;;;;23.70;16.93;;;4.30;99.90;;;;;;5038669;28;20452;-90
2020/12/02 08:43:34;;;;;;;25.47;17.33;;;4.40;99.90;;;;;;5036089;28;20456;-89
2020/12/02 08:46:08;;;;;;;24.73;14.37;;;4.40;99.90;;;;;;5014555;28;20448;-88
2020/12/02 08:48:36;;;;;;;21.93;15.53;;;4.40;99.90;;;;;;5015861;28;20483;-89
2020/12/02 08:51:03;;;;;;;25.83;15.50;;;4.30;99.90;;;;;;5016800;28;20467;-89
2020/12/02 08:53:32;;;;;;;24.10;15.43;;;4.20;99.90;;;;;;5016722;28;20956;-89
2020/12/02 08:55:59;;;;;;;22.20;14.57;;;4.10;99.90;;;;;;5015473;28;20476;-90
2020/12/02 08:58:26;;;;;;;24.10;16.20;;;4.00;99.90;;;;;;5016495;28;20509;-89
2020/12/02 09:00:52;;;;;;;25.10;17.10;;;3.90;99.90;;;;;;5016485;28;20456;-89
2020/12/02 09:03:23;;;;;;;23.97;16.53;;;3.80;99.90;;;;;;5016185;28;20272;-90
2020/12/02 09:05:49;;;;;;;24.80;15.80;;;3.80;99.90;;;;;;5025231;28;20485;-90
2020/12/02 09:08:15;;;;;;;24.57;17.73;;;3.80;99.90;;;;;;5017478;28;20464;-90
2020/12/02 09:10:41;;;;;;;23.63;15.13;;;3.80;99.90;;;;;;5015930;28;20472;-90
2020/12/02 09:13:08;;;;;;;25.38;16.85;;;3.80;99.90;;;;;;5015684;28;20206;-90
2020/12/02 09:15:35;;;;;;;26.20;15.77;;;3.80;99.90;;;;;;5015695;28;20665;-90
2020/12/02 09:18:01;;;;;;;26.88;16.40;;;3.80;99.90;;;;;;5015915;28;20550;-90
2020/12/02 09:20:27;;;;;;;24.17;15.85;;;3.80;99.90;;;;;;5015457;28;20817;-90
2020/12/02 09:22:54;;;;;;;28.80;17.10;;;3.80;99.90;;;;;;5016134;28;20233;-90
2020/12/02 09:25:20;;;;;;;31.80;19.52;;;4.00;99.90;;;;;;5014978;28;20442;-90
2020/12/02 09:27:46;;;;;;;28.40;17.27;;;4.10;99.90;;;;;;5015932;28;20210;-91
2020/12/02 09:30:13;;;;;;;25.77;15.60;;;4.10;99.90;;;;;;5015524;28;20945;-90
2020/12/02 09:32:40;;;;;;;28.37;17.70;;;4.10;99.90;;;;;;5015681;28;20447;-90
2020/12/02 09:35:07;;;;;;;29.70;18.60;;;4.00;99.90;;;;;;5015245;28;20680;-90
2020/12/02 09:37:34;;;;;;;25.85;17.45;;;3.90;99.90;;;;;;5015690;28;20225;-91
2020/12/02 09:40:01;;;;;;;28.30;18.15;;;3.80;99.90;;;;;;5015640;28;20201;-90
2020/12/02 09:42:47;;;;;;;32.70;18.50;;;3.90;99.90;;;;;;5015599;28;20211;-88
2020/12/02 09:45:28;;;;;;;31.40;19.70;;;3.90;99.90;;;;;;5019336;28;20451;-86
2020/12/02 09:47:55;;;;;;;30.20;19.00;;;3.90;99.90;;;;;;5015922;28;20880;-87
2020/12/02 09:50:22;;;;;;;28.15;17.42;;;3.80;99.90;;;;;;5014901;28;20444;-86
2020/12/02 09:52:49;;;;;;;28.20;16.90;;;3.90;99.90;;;;;;5014992;28;20265;-85
2020/12/02 09:55:19;;;;;;;30.80;19.23;;;3.80;99.90;;;;;;5014080;28;20199;-88
2020/12/02 09:57:46;;;;;;;31.97;19.40;;;3.90;99.90;;;;;;5014584;28;20891;-89
2020/12/02 10:00:14;;;;;;;28.27;18.17;;;4.00;99.90;;;;;;5010148;28;20952;-90
2020/12/02 10:03:14;;;;;;;29.63;19.30;;;4.10;99.90;;;;;;5013577;28;20660;-89
2020/12/02 10:06:14;;;;;;;30.70;18.50;;;4.10;99.90;;;;;;5014219;28;20986;-89
2020/12/02 10:09:01;;;;;;;26.70;15.97;;;4.00;99.90;;;;;;5013940;28;20522;-90
2020/12/02 10:11:34;;;;;;;24.47;18.70;;;4.20;99.90;;;;;;5015118;28;20444;-89
2020/12/02 10:14:16;;;;;;;30.03;18.90;;;4.20;99.90;;;;;;5014005;28;20827;-89
2020/12/02 10:16:57;;;;;;;28.73;16.00;;;4.40;99.90;;;;;;5016419;28;20501;-91
2020/12/02 10:19:43;;;;;;;25.70;17.98;;;4.40;99.90;;;;;;5014685;28;20485;-89
2020/12/02 10:22:38;;;;;;;28.40;17.70;;;4.40;99.90;;;;;;5014722;28;20593;-89
2020/12/02 10:25:21;;;;;;;30.30;17.40;;;4.40;99.90;;;;;;5042905;23;20503;-89
2020/12/02 10:28:02;;;;;;;30.13;17.93;;;4.30;99.90;;;;;;5015079;28;20441;-89
2020/12/02 10:30:31;;;;;;;22.33;17.10;;;4.30;99.90;;;;;;5016118;28;20480;-89
2020/12/02 10:33:23;;;;;;;25.63;18.37;;;4.30;99.90;;;;;;5014858;28;20451;-90
2020/12/02 10:35:50;;;;;;;26.50;17.30;;;4.30;99.90;;;;;;4995023;28;20474;-89
2020/12/02 10:38:29;;;;;;;26.43;17.60;;;4.30;99.90;;;;;;4996836;28;20494;-89
2020/12/02 10:41:03;;;;;;;27.53;17.83;;;4.40;99.90;;;;;;5014555;28;20460;-90
2020/12/02 10:43:37;;;;;;;27.97;17.10;;;4.30;99.90;;;;;;5015135;28;21199;-88
2020/12/02 10:46:06;;;;;;;26.27;16.50;;;4.40;99.90;;;;;;5014648;28;20455;-88
2020/12/02 10:48:47;;;;;;;26.10;17.07;;;4.50;99.90;;;;;;5015814;28;20223;-88
2020/12/02 10:51:14;;;;;;;26.57;15.87;;;4.30;99.90;;;;;;5020812;28;20489;-88
2020/12/02 10:53:43;;;;;;;23.40;15.30;;;4.30;99.90;;;;;;5015332;28;20452;-88
2020/12/02 10:56:09;;;;;;;28.07;17.13;;;4.30;99.90;;;;;;5021387;28;20473;-91
2020/12/02 10:58:36;;;;;;;30.13;18.00;;;4.20;99.90;;;;;;5029104;28;20488;-86
2020/12/02 11:01:07;;;;;;;25.97;15.27;;;4.20;99.90;;;;;;5031682;28;20449;-91
2020/12/02 11:03:35;;;;;;;22.20;15.00;;;4.30;99.90;;;;;;5031085;28;21017;-88
2020/12/02 11:06:30;;;;;;;25.17;16.50;;;4.40;99.90;;;;;;5014505;28;20469;-89
2020/12/02 11:09:29;;;;;;;26.53;17.03;;;4.50;99.90;;;;;;5014562;28;20453;-90
2020/12/02 11:12:13;;;;;;;22.07;15.77;;;4.60;99.90;;;;;;5000673;28;20448;-89
2020/12/02 11:15:09;;;;;;;28.90;17.50;;;4.40;99.90;;;;;;5013838;28;20445;-88
2020/12/02 11:17:46;;;;;;;25.77;16.67;;;4.40;99.90;;;;;;4978611;28;20497;-89
2020/12/02 11:20:17;;;;;;;26.47;16.63;;;4.40;99.90;;;;;;4994490;28;20947;-89
2020/12/02 11:22:56;;;;;;;27.10;17.93;;;4.40;99.90;;;;;;5011710;28;20951;-89
2020/12/02 11:25:27;;;;;;;22.90;17.10;;;4.40;99.90;;;;;;5010605;28;20469;-89
2020/12/02 11:27:54;;;;;;;26.37;16.63;;;4.50;99.90;;;;;;5013841;28;20466;-89
2020/12/02 11:30:25;;;;;;;29.20;18.43;;;4.50;99.90;;;;;;5012862;28;20465;-90
2020/12/02 11:33:33;;;;;;;31.13;19.10;;;4.50;99.90;;;;;;5014086;28;20451;-89
2020/12/02 11:36:37;;;;;;;25.67;16.70;;;4.50;99.90;;;;;;5031466;28;20451;-89
2020/12/02 11:39:15;;;;;;;26.85;17.38;;;4.20;99.90;;;;;;5014168;28;20492;-92
2020/12/02 11:41:48;;;;;;;27.73;17.20;;;4.30;99.90;;;;;;5019955;28;20236;-90
2020/12/02 11:44:26;;;;;;;29.87;18.77;;;4.30;99.90;;;;;;5019344;28;20470;-89
2020/12/02 11:46:59;;;;;;;30.08;17.98;;;4.30;99.90;;;;;;5014686;28;20453;-90
2020/12/02 11:49:33;;;;;;;27.17;18.87;;;4.20;99.90;;;;;;5018242;28;20221;-88
2020/12/02 11:52:12;;;;;;;28.07;17.50;;;4.20;99.90;;;;;;5014333;28;20488;-90
2020/12/02 11:54:40;;;;;;;32.60;18.37;;;4.30;99.90;;;;;;5014251;28;20859;-89
2020/12/02 11:57:09;;;;;;;27.40;15.60;;;4.50;99.90;;;;;;5014226;28;20446;-90
2020/12/02 11:59:36;;;;;;;30.30;17.90;;;4.50;99.90;;;;;;5013865;28;20473;-90
2020/12/02 12:02:28;;;;;;;24.03;15.60;;;4.50;99.90;;;;;;5014593;28;20449;-90
2020/12/02 12:05:02;;;;;;;25.90;16.47;;;4.40;99.90;;;;;;5014477;28;20449;-90
2020/12/02 12:07:38;;;;;;;32.50;19.60;;;4.40;99.90;;;;;;5017966;28;20449;-90
2020/12/02 12:10:23;;;;;;;29.93;19.27;;;4.30;99.90;;;;;;5017529;28;20459;-93
2020/12/02 12:12:57;;;;;;;32.37;18.80;;;4.10;99.90;;;;;;5016077;28;20552;-90
2020/12/02 12:15:32;;;;;;;34.83;18.87;;;4.00;99.90;;;;;;5027932;28;20455;-93
2020/12/02 12:18:03;;;;;;;32.55;18.92;;;3.90;99.90;;;;;;5015761;28;20489;-90
2020/12/02 12:20:34;;;;;;;31.30;16.80;;;3.90;99.90;;;;;;5015797;28;20206;-93
2020/12/02 12:23:05;;;;;;;30.57;17.83;;;3.80;99.90;;;;;;5014069;28;20452;-91
2020/12/02 12:25:34;;;;;;;30.70;17.63;;;3.80;99.90;;;;;;5012891;28;20457;-92
2020/12/02 12:28:04;;;;;;;31.00;17.90;;;3.90;99.90;;;;;;5015043;28;20480;-92
2020/12/02 12:30:34;;;;;;;30.17;17.00;;;3.90;99.90;;;;;;5015718;28;20452;-92
2020/12/02 12:33:09;;;;;;;28.30;17.10;;;4.00;99.90;;;;;;5015020;28;20457;-90
2020/12/02 12:36:20;;;;;;;28.23;16.53;;;4.10;99.90;;;;;;5015195;28;20544;-92
2020/12/02 12:39:15;;;;;;;34.13;19.30;;;4.20;99.90;;;;;;5014446;28;20508;-91
2020/12/02 12:41:46;;;;;;;34.47;18.27;;;4.20;99.90;;;;;;5021460;28;20450;-91
2020/12/02 12:44:42;;;;;;;34.13;19.70;;;4.00;99.90;;;;;;5020309;28;20434;-91
2020/12/02 12:47:22;;;;;;;36.83;19.93;;;4.00;99.90;;;;;;5016495;28;20453;-90
2020/12/02 12:49:49;;;;;;;34.67;20.17;;;3.90;99.90;;;;;;5011938;28;20452;-90
2020/12/02 12:52:18;;;;;;;31.33;18.20;;;4.00;99.90;;;;;;5012606;28;20290;-89
2020/12/02 12:54:45;;;;;;;32.35;18.80;;;4.10;99.90;;;;;;5012896;28;20433;-90
2020/12/02 12:57:16;;;;;;;30.52;19.27;;;4.10;99.90;;;;;;5013373;28;20584;-90
2020/12/02 12:59:43;;;;;;;30.93;18.17;;;3.90;99.90;;;;;;5012649;28;20214;-90